Time;durP1;ratioP1;P1;durP2;ratioP2;P2;SDS_P1;SDS_P2;PMS_P1;PMS_P2;Temp;Humidity;BMP_temperature;BMP_pressure;BME280_temperature;BME280_humidity;BME280_pressure;Samples;Min_cycle;Max_cycle;Signal;HPM_P1;HPM_P2
2022/03/07 00:08:32;;;;;;;5.97;2.13;;;9.50;70.50;;;;;;20667171;28;20077;-61
2022/03/07 00:18:34;;;;;;;2.78;1.83;;;9.40;71.30;;;;;;20666307;28;20058;-58
2022/03/07 00:28:36;;;;;;;5.50;2.40;;;9.20;72.20;;;;;;20666178;28;20054;-57
2022/03/07 00:38:38;;;;;;;1.92;1.55;;;9.20;73.30;;;;;;20690221;28;20061;-58
2022/03/07 00:48:40;;;;;;;4.25;1.77;;;9.00;73.80;;;;;;20679741;28;20057;-60
2022/03/07 00:58:41;;;;;;;3.55;2.20;;;8.90;74.20;;;;;;20677660;28;20047;-58
2022/03/07 01:08:43;;;;;;;3.33;2.00;;;8.90;74.60;;;;;;20678789;28;20050;-59
2022/03/07 01:18:45;;;;;;;3.08;2.30;;;8.80;74.60;;;;;;20677777;28;20499;-58
2022/03/07 01:28:47;;;;;;;3.65;1.98;;;8.80;74.60;;;;;;20677551;28;20066;-58
2022/03/07 01:38:49;;;;;;;4.15;2.65;;;8.70;75.00;;;;;;20675427;28;20051;-58
2022/03/07 01:48:51;;;;;;;2.85;2.40;;;8.70;75.60;;;;;;20674155;28;20070;-59
2022/03/07 01:58:53;;;;;;;2.72;2.30;;;8.70;75.80;;;;;;20673935;28;20050;-58
2022/03/07 02:08:57;;;;;;;2.83;2.13;;;8.70;75.90;;;;;;20674163;28;20053;-59
2022/03/07 02:18:59;;;;;;;2.47;2.15;;;8.70;75.70;;;;;;20672986;28;20618;-59
2022/03/07 02:29:02;;;;;;;2.22;1.92;;;8.60;75.90;;;;;;20672129;28;20057;-60
2022/03/07 02:39:05;;;;;;;2.88;2.25;;;8.60;76.00;;;;;;20671687;28;20050;-59
2022/03/07 02:49:08;;;;;;;3.08;2.53;;;8.60;76.00;;;;;;20669760;28;20053;-59
2022/03/07 02:59:09;;;;;;;3.05;2.35;;;8.60;76.20;;;;;;20668821;28;20129;-59
2022/03/07 03:09:15;;;;;;;4.00;1.83;;;8.50;76.80;;;;;;20683641;28;20050;-58
2022/03/07 03:19:36;;;;;;;2.15;1.60;;;8.40;77.10;;;;;;20669311;28;20883;-61
2022/03/07 03:29:57;;;;;;;4.00;1.35;;;8.20;77.10;;;;;;20668045;28;20060;-60
2022/03/07 03:40:18;;;;;;;2.58;1.75;;;8.00;77.50;;;;;;20668673;28;20054;-58
2022/03/07 03:50:39;;;;;;;3.30;2.00;;;7.90;78.10;;;;;;20667766;28;20144;-59
2022/03/07 04:01:00;;;;;;;3.03;1.75;;;7.90;78.00;;;;;;20667026;28;20053;-59
2022/03/07 04:11:21;;;;;;;3.05;2.08;;;7.90;78.40;;;;;;20674780;28;20055;-59
2022/03/07 04:21:43;;;;;;;2.83;1.88;;;7.80;78.70;;;;;;20680786;28;20193;-60
2022/03/07 04:32:05;;;;;;;2.85;2.35;;;7.80;78.80;;;;;;20681687;28;20137;-58
2022/03/07 04:42:26;;;;;;;2.78;2.00;;;7.70;78.70;;;;;;20681111;28;20495;-59
2022/03/07 04:52:47;;;;;;;2.72;1.85;;;7.60;79.00;;;;;;20680134;28;20499;-59
2022/03/07 05:03:08;;;;;;;2.80;1.65;;;7.40;79.10;;;;;;20678111;28;20054;-59
2022/03/07 05:13:21;;;;;;;3.60;2.03;;;7.20;78.90;;;;;;20677926;28;20387;-60
2022/03/07 05:23:39;;;;;;;4.22;2.47;;;7.20;78.80;;;;;;20676300;28;20093;-57
2022/03/07 05:33:58;;;;;;;3.50;2.00;;;7.10;79.20;;;;;;20676931;28;20137;-61
2022/03/07 05:44:16;;;;;;;4.55;2.50;;;7.00;79.40;;;;;;20677052;28;20054;-60
2022/03/07 05:54:25;;;;;;;5.55;2.70;;;7.00;79.50;;;;;;20676230;28;20061;-61
2022/03/07 06:04:32;;;;;;;4.07;2.55;;;7.10;79.80;;;;;;20675627;28;20114;-61
2022/03/07 06:14:35;;;;;;;5.47;2.63;;;7.10;79.80;;;;;;20691006;28;20043;-58
2022/03/07 06:24:39;;;;;;;4.90;2.72;;;7.20;80.10;;;;;;20672916;28;20058;-58
2022/03/07 06:34:42;;;;;;;4.75;3.17;;;7.10;79.60;;;;;;20672211;28;20050;-61
2022/03/07 06:44:45;;;;;;;4.95;3.00;;;7.10;79.60;;;;;;20672477;28;20388;-59
2022/03/07 06:54:48;;;;;;;5.47;3.42;;;7.20;79.70;;;;;;20670472;28;20057;-58
2022/03/07 07:04:51;;;;;;;5.68;3.55;;;7.20;80.30;;;;;;20669897;28;20058;-60
2022/03/07 07:14:54;;;;;;;6.97;4.60;;;7.10;80.20;;;;;;20669682;28;20456;-59
2022/03/07 07:24:56;;;;;;;9.82;4.35;;;7.20;80.40;;;;;;20666545;28;20290;-59
2022/03/07 07:34:58;;;;;;;6.10;3.78;;;7.20;80.30;;;;;;20668474;28;20490;-58
2022/03/07 07:45:00;;;;;;;4.60;3.15;;;7.20;80.50;;;;;;20669818;28;20103;-59
2022/03/07 07:55:05;;;;;;;5.90;3.80;;;7.10;80.60;;;;;;20667089;28;20133;-58
2022/03/07 08:05:09;;;;;;;6.43;3.90;;;7.20;80.80;;;;;;20666888;28;20054;-61
2022/03/07 08:15:13;;;;;;;7.63;5.18;;;7.30;80.80;;;;;;20665139;28;20130;-61
2022/03/07 08:25:16;;;;;;;5.68;3.80;;;7.50;81.20;;;;;;20665864;28;20058;-59
2022/03/07 08:35:18;;;;;;;9.70;4.20;;;7.50;81.20;;;;;;20666046;28;20043;-60
2022/03/07 08:45:22;;;;;;;5.32;4.15;;;7.60;81.10;;;;;;20664145;28;20098;-61
2022/03/07 08:55:24;;;;;;;6.00;3.88;;;7.60;81.00;;;;;;20668487;28;20487;-61
2022/03/07 09:05:26;;;;;;;7.00;4.13;;;7.70;80.40;;;;;;20678725;28;20054;-59
2022/03/07 09:15:29;;;;;;;6.68;4.15;;;8.00;80.40;;;;;;20676881;28;20042;-61
2022/03/07 09:25:31;;;;;;;7.20;4.00;;;8.20;79.70;;;;;;20675203;28;20052;-61
2022/03/07 09:35:35;;;;;;;6.32;2.33;;;8.20;79.90;;;;;;20672676;28;20425;-60
2022/03/07 09:45:37;;;;;;;6.40;4.00;;;8.70;79.80;;;;;;20676156;28;20495;-64
2022/03/07 09:55:40;;;;;;;7.65;4.20;;;9.00;77.60;;;;;;20674780;28;20169;-64
2022/03/07 10:05:46;;;;;;;8.25;3.70;;;10.10;74.20;;;;;;20672395;28;20082;-58
2022/03/07 10:15:58;;;;;;;7.18;3.78;;;9.70;75.70;;;;;;20668966;28;20406;-57
2022/03/07 10:26:07;;;;;;;7.80;4.10;;;10.50;73.60;;;;;;20626942;28;20070;-57
2022/03/07 10:36:09;;;;;;;6.00;3.30;;;9.60;75.40;;;;;;20630026;28;20050;-57
2022/03/07 10:46:12;;;;;;;5.75;4.03;;;10.00;75.60;;;;;;20662967;28;20081;-58
2022/03/07 10:56:16;;;;;;;7.05;4.47;;;10.50;73.90;;;;;;20652021;28;20057;-59
2022/03/07 11:06:18;;;;;;;8.98;5.75;;;10.60;73.40;;;;;;20665972;28;20097;-58
2022/03/07 11:16:21;;;;;;;7.00;5.22;;;10.20;73.90;;;;;;20659341;28;20152;-57
2022/03/07 11:26:26;;;;;;;14.32;3.80;;;10.60;73.60;;;;;;20661471;28;20065;-61
2022/03/07 11:36:29;;;;;;;8.07;5.53;;;11.70;72.30;;;;;;20665972;28;20061;-58
2022/03/07 11:46:32;;;;;;;3.67;2.65;;;12.80;67.00;;;;;;20659608;28;20053;-57
2022/03/07 11:56:37;;;;;;;6.05;4.97;;;12.30;68.00;;;;;;20656570;28;20102;-56
2022/03/07 12:06:46;;;;;;;6.85;5.18;;;13.00;65.80;;;;;;20659539;28;20046;-60
2022/03/07 12:16:49;;;;;;;5.50;4.30;;;13.30;64.60;;;;;;20654241;28;20062;-60
2022/03/07 12:26:53;;;;;;;5.72;4.03;;;14.00;62.30;;;;;;20653221;28;20054;-62
2022/03/07 12:36:58;;;;;;;3.85;3.45;;;15.80;57.80;;;;;;20676544;28;20057;-61
2022/03/07 12:47:00;;;;;;;3.75;2.88;;;15.30;57.00;;;;;;20679649;28;20069;-57
2022/03/07 12:57:04;;;;;;;4.18;3.10;;;15.00;58.10;;;;;;20675927;28;20483;-61
2022/03/07 13:07:14;;;;;;;3.50;2.58;;;16.90;53.50;;;;;;20677483;28;20046;-59
2022/03/07 13:17:19;;;;;;;3.80;2.88;;;17.30;51.70;;;;;;20677525;28;20061;-61
2022/03/07 13:27:22;;;;;;;3.28;2.75;;;15.70;52.70;;;;;;20675915;28;20050;-61
2022/03/07 13:37:39;;;;;;;4.32;3.17;;;14.80;54.00;;;;;;20674767;28;20051;-60
2022/03/07 13:47:43;;;;;;;6.30;2.53;;;14.70;54.40;;;;;;20675579;28;20046;-59
2022/03/07 13:57:55;;;;;;;4.18;2.63;;;15.00;52.70;;;;;;20675110;28;20057;-61
2022/03/07 14:07:57;;;;;;;5.00;2.53;;;14.70;52.00;;;;;;20675467;28;20050;-58
2022/03/07 14:17:59;;;;;;;18.17;12.73;;;14.60;51.40;;;;;;20673686;28;20494;-59
2022/03/07 14:28:05;;;;;;;4.03;2.70;;;14.50;51.90;;;;;;20673571;28;20475;-59
2022/03/07 14:38:06;;;;;;;5.80;2.63;;;14.10;52.50;;;;;;20671987;28;20403;-59
2022/03/07 14:48:08;;;;;;;6.18;2.60;;;13.60;53.90;;;;;;20670387;28;20046;-59
2022/03/07 14:58:09;;;;;;;4.40;2.78;;;11.70;62.00;;;;;;20667642;28;20177;-60
2022/03/07 15:08:11;;;;;;;5.10;2.55;;;10.70;66.20;;;;;;20669090;28;20077;-60
2022/03/07 15:18:29;;;;;;;3.08;1.63;;;10.50;67.90;;;;;;20668867;28;20054;-58
2022/03/07 15:28:38;;;;;;;4.33;1.93;;;10.60;68.40;;;;;;20682926;28;20090;-60
2022/03/07 15:38:43;;;;;;;3.63;2.40;;;10.90;67.70;;;;;;20668199;28;20491;-56
2022/03/07 15:48:47;;;;;;;6.25;3.38;;;11.80;65.90;;;;;;20668083;28;20129;-57
2022/03/07 15:58:49;;;;;;;4.43;2.50;;;11.80;65.80;;;;;;20665956;28;20047;-66
2022/03/07 16:08:51;;;;;;;4.15;2.30;;;11.80;65.70;;;;;;20676878;28;20089;-60
2022/03/07 16:18:56;;;;;;;3.33;1.98;;;12.00;65.00;;;;;;20681602;28;20073;-62
2022/03/07 16:28:58;;;;;;;3.47;2.00;;;12.20;64.80;;;;;;20680351;28;20065;-58
2022/03/07 16:39:00;;;;;;;7.03;2.50;;;12.20;64.20;;;;;;20679340;28;20046;-63
2022/03/07 16:49:03;;;;;;;3.10;2.05;;;12.40;63.20;;;;;;20679457;28;20065;-66
2022/03/07 16:59:05;;;;;;;3.85;2.20;;;12.50;63.40;;;;;;20681617;28;20050;-58
2022/03/07 17:09:07;;;;;;;4.00;2.17;;;12.30;64.50;;;;;;20678085;28;20521;-59
2022/03/07 17:19:09;;;;;;;4.45;1.80;;;12.00;65.60;;;;;;20675432;28;20083;-62
2022/03/07 17:29:11;;;;;;;3.60;1.95;;;12.00;65.40;;;;;;20676122;28;20085;-61
2022/03/07 17:39:13;;;;;;;3.33;1.67;;;11.90;65.60;;;;;;20626334;28;20061;-62
2022/03/07 17:49:14;;;;;;;2.83;1.70;;;11.80;65.40;;;;;;20655591;28;20050;-58
2022/03/07 17:59:16;;;;;;;3.38;1.88;;;11.60;66.20;;;;;;20688745;28;20142;-61
2022/03/07 18:09:18;;;;;;;4.75;2.38;;;11.70;65.70;;;;;;20663083;28;20506;-59
2022/03/07 18:19:20;;;;;;;3.28;2.15;;;12.90;63.00;;;;;;20670076;28;20093;-64
2022/03/07 18:29:22;;;;;;;4.72;2.38;;;11.90;65.30;;;;;;20624367;28;20494;-59
2022/03/07 18:39:24;;;;;;;3.35;2.03;;;12.30;67.80;;;;;;20599932;28;20050;-60
2022/03/07 18:49:25;;;;;;;4.00;2.13;;;12.00;64.60;;;;;;20614292;28;20130;-59
2022/03/07 18:59:28;;;;;;;5.95;1.75;;;11.50;66.00;;;;;;20656571;28;20051;-67
2022/03/07 19:09:30;;;;;;;3.65;1.85;;;11.50;67.20;;;;;;20664706;28;20046;-67
2022/03/07 19:19:34;;;;;;;5.22;1.73;;;11.90;67.10;;;;;;20666081;28;20073;-64
2022/03/07 19:29:36;;;;;;;53.50;42.78;;;12.10;66.20;;;;;;20667452;28;20046;-60
2022/03/07 19:39:37;;;;;;;6.22;3.25;;;13.60;65.20;;;;;;20664072;28;20054;-67
2022/03/07 19:49:39;;;;;;;7.55;3.63;;;13.10;63.20;;;;;;20666998;28;20051;-63
2022/03/07 19:59:41;;;;;;;4.38;2.53;;;12.30;65.10;;;;;;20667437;28;20453;-63
2022/03/07 20:09:43;;;;;;;4.80;2.97;;;11.90;65.90;;;;;;20669179;28;20072;-64
2022/03/07 20:19:45;;;;;;;4.60;2.30;;;11.70;65.50;;;;;;20668633;28;20403;-63
2022/03/07 20:29:47;;;;;;;6.55;3.58;;;11.10;67.00;;;;;;20668971;28;20050;-63
2022/03/07 20:39:49;;;;;;;5.85;2.22;;;11.00;67.00;;;;;;20668953;28;20062;-62
2022/03/07 20:49:51;;;;;;;4.25;1.90;;;10.70;67.20;;;;;;20669684;28;20047;-64
2022/03/07 20:59:53;;;;;;;3.28;2.03;;;10.70;67.30;;;;;;20680571;28;20410;-64
2022/03/07 21:09:55;;;;;;;2.70;1.40;;;10.50;67.90;;;;;;20679864;28;20491;-64
2022/03/07 21:20:03;;;;;;;4.45;1.73;;;10.40;68.20;;;;;;20678777;28;20054;-65
2022/03/07 21:30:07;;;;;;;2.67;1.65;;;10.40;68.60;;;;;;20678912;28;20043;-63
2022/03/07 21:40:11;;;;;;;2.80;1.77;;;10.20;69.30;;;;;;20676499;28;20057;-64
2022/03/07 21:50:13;;;;;;;2.78;1.45;;;10.10;69.50;;;;;;20677420;28;20433;-66
2022/03/07 22:00:16;;;;;;;30.83;17.50;;;10.10;69.70;;;;;;20674623;28;20062;-65
2022/03/07 22:10:18;;;;;;;1.80;1.00;;;10.00;70.10;;;;;;20674247;28;20050;-67
2022/03/07 22:20:21;;;;;;;1.42;1.08;;;9.90;70.00;;;;;;20673814;28;20046;-67
2022/03/07 22:30:23;;;;;;;2.97;1.00;;;10.10;69.70;;;;;;20672084;28;20054;-65
2022/03/07 22:40:25;;;;;;;2.95;1.05;;;9.90;69.90;;;;;;20672323;28;20088;-64
2022/03/07 22:50:27;;;;;;;2.78;0.95;;;9.70;69.90;;;;;;20671422;28;20053;-67
2022/03/07 23:00:32;;;;;;;0.75;0.55;;;9.60;70.20;;;;;;20670013;28;20510;-65
2022/03/07 23:10:34;;;;;;;2.53;0.90;;;9.60;70.30;;;;;;20669767;28;20042;-66
2022/03/07 23:20:35;;;;;;;1.70;1.10;;;9.50;70.70;;;;;;20668475;28;20058;-66
2022/03/07 23:30:38;;;;;;;2.30;1.33;;;9.50;70.80;;;;;;20668230;28;20050;-68
2022/03/07 23:40:40;;;;;;;2.22;1.35;;;9.50;71.30;;;;;;20667400;28;20061;-67
2022/03/07 23:50:42;;;;;;;2.80;1.25;;;9.50;71.40;;;;;;20668341;28;20514;-66
